createdAt,value
2022-09-16T00:02:25.054Z,67.90
2022-09-16T00:04:54.450Z,46.95
2022-09-16T00:07:23.333Z,57.63
2022-09-16T00:09:50.819Z,46.03
2022-09-16T00:12:18.319Z,48.95
2022-09-16T00:14:45.907Z,46.15
2022-09-16T00:17:13.514Z,53.50
2022-09-16T00:19:41.043Z,59.45
2022-09-16T00:22:08.508Z,60.83
2022-09-16T00:24:37.376Z,62.17
2022-09-16T00:27:05.173Z,65.88
2022-09-16T00:29:32.692Z,88.72
2022-09-16T00:32:00.161Z,95.00
2022-09-16T00:34:27.655Z,47.40
2022-09-16T00:36:55.133Z,73.43
2022-09-16T00:39:22.623Z,61.95
2022-09-16T00:41:51.444Z,55.35
2022-09-16T00:44:55.483Z,59.97
2022-09-16T00:47:26.130Z,55.10
2022-09-16T00:49:59.268Z,48.78
2022-09-16T00:52:29.191Z,46.55
2022-09-16T00:54:56.771Z,51.63
2022-09-16T00:57:25.802Z,57.55
2022-09-16T00:59:56.216Z,59.38
2022-09-16T01:02:25.365Z,56.70
2022-09-16T01:04:56.790Z,61.47
2022-09-16T01:07:31.116Z,57.55
2022-09-16T01:09:58.877Z,56.45
2022-09-16T01:12:29.996Z,58.78
2022-09-16T01:14:59.120Z,65.32
2022-09-16T01:17:44.943Z,80.75
2022-09-16T01:20:47.507Z,94.18
2022-09-16T01:24:00.625Z,115.05
2022-09-16T01:26:57.119Z,81.80
2022-09-16T01:29:40.097Z,90.45
2022-09-16T01:32:13.605Z,59.83
2022-09-16T01:34:50.939Z,62.70
2022-09-16T01:37:30.017Z,79.22
2022-09-16T01:40:04.514Z,93.20
2022-09-16T01:42:41.184Z,86.25
2022-09-16T01:45:18.447Z,125.78
2022-09-16T01:47:55.359Z,109.15
2022-09-16T01:50:26.634Z,103.75
2022-09-16T01:53:01.959Z,73.45
2022-09-16T01:55:33.839Z,136.13
2022-09-16T01:58:07.389Z,96.00
2022-09-16T02:00:35.191Z,83.88
2022-09-16T02:03:07.795Z,112.78
2022-09-16T02:05:40.018Z,80.32
2022-09-16T02:08:12.764Z,47.53
2022-09-16T02:10:43.792Z,63.75
2022-09-16T02:13:20.209Z,59.55
2022-09-16T02:15:50.761Z,62.65
2022-09-16T02:18:25.777Z,99.68
2022-09-16T02:20:56.737Z,78.88
2022-09-16T02:23:27.924Z,100.80
2022-09-16T02:25:56.457Z,89.07
2022-09-16T02:28:27.045Z,66.47
2022-09-16T02:30:58.306Z,67.97
2022-09-16T02:33:33.534Z,79.80
2022-09-16T02:36:04.771Z,69.40
2022-09-16T02:38:38.825Z,74.00
2022-09-16T02:41:06.578Z,92.18
2022-09-16T02:43:34.320Z,71.22
2022-09-16T02:46:09.644Z,91.00
2022-09-16T02:48:51.815Z,70.50
2022-09-16T02:51:30.638Z,58.58
2022-09-16T02:54:02.472Z,56.17
2022-09-16T02:56:33.085Z,63.83
2022-09-16T02:59:02.127Z,72.35
2022-09-16T03:01:33.673Z,59.80
2022-09-16T03:04:03.729Z,65.35
2022-09-16T03:06:35.961Z,79.82
2022-09-16T03:09:06.761Z,62.13
2022-09-16T03:12:06.141Z,55.83
2022-09-16T03:14:47.468Z,62.28
2022-09-16T03:17:31.078Z,59.45
2022-09-16T03:20:10.446Z,59.65
2022-09-16T03:22:48.478Z,58.35
2022-09-16T03:25:26.304Z,76.90
2022-09-16T03:28:01.481Z,62.53
2022-09-16T03:30:33.412Z,107.50
2022-09-16T03:33:06.538Z,82.25
2022-09-16T03:35:41.336Z,115.32
2022-09-16T03:38:09.857Z,92.88
2022-09-16T03:40:38.915Z,68.25
2022-09-16T03:43:12.371Z,94.05
2022-09-16T03:45:42.642Z,75.70
2022-09-16T03:48:10.872Z,81.72
2022-09-16T03:50:39.881Z,83.75
2022-09-16T03:53:07.311Z,82.30
2022-09-16T03:55:34.817Z,66.60
2022-09-16T03:58:02.265Z,57.28
2022-09-16T04:00:29.959Z,68.88
2022-09-16T04:02:57.499Z,54.00
2022-09-16T04:05:25.050Z,57.40
2022-09-16T04:07:53.834Z,79.50
2022-09-16T04:10:21.275Z,58.13
2022-09-16T04:12:48.722Z,64.68
2022-09-16T04:15:16.315Z,74.15
2022-09-16T04:17:43.739Z,66.35
2022-09-16T04:20:11.368Z,58.80
2022-09-16T04:22:38.837Z,63.80
2022-09-16T04:25:09.921Z,88.30
2022-09-16T04:27:37.396Z,51.17
2022-09-16T04:30:05.620Z,49.17
2022-09-16T04:32:33.061Z,66.00
2022-09-16T04:35:00.518Z,94.50
2022-09-16T04:37:31.280Z,55.53
2022-09-16T04:40:02.319Z,47.42
2022-09-16T04:42:33.435Z,81.07
2022-09-16T04:45:00.900Z,64.45
2022-09-16T04:47:29.285Z,59.03
2022-09-16T04:49:56.745Z,50.28
2022-09-16T04:52:24.213Z,39.72
2022-09-16T04:54:51.697Z,50.97
2022-09-16T04:57:19.135Z,48.03
2022-09-16T04:59:47.929Z,29.52
2022-09-16T05:02:15.368Z,29.15
2022-09-16T05:04:42.814Z,23.48
2022-09-16T05:07:10.243Z,23.70
2022-09-16T05:09:37.703Z,27.48
2022-09-16T05:12:05.580Z,33.63
2022-09-16T05:14:33.006Z,30.08
2022-09-16T05:17:01.869Z,35.78
2022-09-16T05:19:29.500Z,38.83
2022-09-16T05:21:56.943Z,34.55
2022-09-16T05:24:24.387Z,40.95
2022-09-16T05:26:51.843Z,29.70
2022-09-16T05:29:19.305Z,29.25
2022-09-16T05:31:47.913Z,30.90
2022-09-16T05:34:18.943Z,46.22
2022-09-16T05:36:47.715Z,70.53
2022-09-16T05:39:23.137Z,27.40
2022-09-16T05:41:54.571Z,60.67
2022-09-16T05:44:22.047Z,41.42
2022-09-16T05:46:50.001Z,61.35
2022-09-16T05:49:20.651Z,27.48
2022-09-16T05:51:49.131Z,24.25
2022-09-16T05:54:18.379Z,28.83
2022-09-16T05:56:46.560Z,32.08
2022-09-16T05:59:15.463Z,46.05
2022-09-16T06:01:43.291Z,47.03
2022-09-16T06:04:13.196Z,31.88
2022-09-16T06:06:43.391Z,30.33
2022-09-16T06:09:12.952Z,38.70
2022-09-16T06:11:42.497Z,36.60
2022-09-16T06:14:11.178Z,34.35
2022-09-16T06:16:39.097Z,63.42
2022-09-16T06:19:10.394Z,30.98
2022-09-16T06:21:38.441Z,70.65
2022-09-16T06:24:08.896Z,53.75
2022-09-16T06:26:37.804Z,58.97
2022-09-16T06:29:06.600Z,49.13
2022-09-16T06:31:35.287Z,37.90
2022-09-16T06:34:03.007Z,46.28
2022-09-16T06:36:32.699Z,60.17
2022-09-16T06:39:00.388Z,41.63
2022-09-16T06:41:29.227Z,28.20
2022-09-16T06:43:56.688Z,50.92
2022-09-16T06:46:26.425Z,50.03
2022-09-16T06:48:58.625Z,16.75
2022-09-16T06:51:29.325Z,53.03
2022-09-16T06:54:00.992Z,18.67
2022-09-16T06:56:29.978Z,42.78
2022-09-16T06:58:57.884Z,15.63
2022-09-16T07:01:27.472Z,46.67
2022-09-16T07:03:56.495Z,35.55
2022-09-16T07:06:38.399Z,36.60
2022-09-16T07:09:13.782Z,24.30
2022-09-16T07:11:42.747Z,13.52
2022-09-16T07:14:10.545Z,16.08
2022-09-16T07:16:38.082Z,15.82
2022-09-16T07:19:05.890Z,14.23
2022-09-16T07:21:33.787Z,25.00
2022-09-16T07:24:03.232Z,12.32
2022-09-16T07:26:32.148Z,26.75
2022-09-16T07:29:02.941Z,20.00
2022-09-16T07:31:37.884Z,38.92
2022-09-16T07:34:07.411Z,28.02
2022-09-16T07:36:37.606Z,13.60
2022-09-16T07:39:06.300Z,11.88
2022-09-16T07:41:35.636Z,21.25
2022-09-16T07:44:06.133Z,14.73
2022-09-16T07:46:36.350Z,72.32
2022-09-16T07:49:06.134Z,16.65
2022-09-16T07:51:33.901Z,13.13
2022-09-16T07:54:03.917Z,10.98
2022-09-16T07:56:34.324Z,20.27
2022-09-16T07:59:02.960Z,11.18
2022-09-16T08:01:32.123Z,14.20
2022-09-16T08:04:00.793Z,12.35
2022-09-16T08:06:31.657Z,17.90
2022-09-16T08:09:05.873Z,15.93
2022-09-16T08:11:42.950Z,11.40
2022-09-16T08:14:10.434Z,11.57
2022-09-16T08:16:39.290Z,11.98
2022-09-16T08:19:06.789Z,45.20
2022-09-16T08:21:34.263Z,12.82
2022-09-16T08:24:01.947Z,12.88
2022-09-16T08:26:29.431Z,30.98
2022-09-16T08:29:08.274Z,43.50
2022-09-16T08:31:37.108Z,9.50
2022-09-16T08:34:06.499Z,15.20
2022-09-16T08:36:34.259Z,22.85
2022-09-16T08:39:02.337Z,7.55
2022-09-16T08:41:51.674Z,13.38
2022-09-16T08:44:31.471Z,24.73
2022-09-16T08:47:01.725Z,35.65
2022-09-16T08:49:35.212Z,13.70
2022-09-16T08:52:10.196Z,35.53
2022-09-16T08:54:42.563Z,25.50
2022-09-16T08:57:14.647Z,24.73
2022-09-16T08:59:47.178Z,22.63
2022-09-16T09:02:26.715Z,18.23
2022-09-16T09:04:56.004Z,18.08
2022-09-16T09:07:32.547Z,8.95
2022-09-16T09:10:10.159Z,35.58
2022-09-16T09:12:41.895Z,19.38
2022-09-16T09:15:28.118Z,14.63
2022-09-16T09:18:13.914Z,5.95
2022-09-16T09:20:55.238Z,27.55
2022-09-16T09:23:39.356Z,34.67
2022-09-16T09:26:15.085Z,32.40
2022-09-16T09:29:04.094Z,6.20
2022-09-16T09:31:43.029Z,7.93
2022-09-16T09:34:25.087Z,6.63
2022-09-16T09:37:09.527Z,7.45
2022-09-16T09:39:49.070Z,8.27
2022-09-16T09:42:21.181Z,6.65
2022-09-16T09:44:55.269Z,17.65
2022-09-16T09:47:27.871Z,7.72
2022-09-16T09:49:58.469Z,7.00
2022-09-16T09:52:36.035Z,15.32
2022-09-16T09:55:16.369Z,4.90
2022-09-16T09:57:58.127Z,9.93
2022-09-16T10:00:25.560Z,51.63
2022-09-16T10:02:53.125Z,4.60
2022-09-16T10:05:23.865Z,49.88
2022-09-16T10:07:56.746Z,16.65
2022-09-16T10:10:26.159Z,13.30
2022-09-16T10:12:54.531Z,5.97
2022-09-16T10:15:23.905Z,18.23
2022-09-16T10:17:52.763Z,18.55
2022-09-16T10:20:28.356Z,25.85
2022-09-16T10:23:01.042Z,40.25
2022-09-16T10:25:30.537Z,34.33
2022-09-16T10:28:00.755Z,20.92
2022-09-16T10:30:31.320Z,6.47
2022-09-16T10:33:02.875Z,7.68
2022-09-16T10:35:32.602Z,22.83
2022-09-16T10:38:04.620Z,11.73
2022-09-16T10:40:33.025Z,8.18
2022-09-16T10:43:04.567Z,5.15
2022-09-16T10:45:35.701Z,6.57
2022-09-16T10:48:07.999Z,9.25
2022-09-16T10:50:35.487Z,6.60
2022-09-16T10:53:04.293Z,30.67
2022-09-16T10:55:35.360Z,21.23
2022-09-16T10:58:10.726Z,12.25
2022-09-16T11:00:49.166Z,11.00
2022-09-16T11:03:55.383Z,9.05
2022-09-16T11:06:36.756Z,12.75
2022-09-16T11:09:16.511Z,5.93
2022-09-16T11:11:59.561Z,19.60
2022-09-16T11:14:38.398Z,15.98
2022-09-16T11:17:23.879Z,26.67
2022-09-16T11:20:06.043Z,4.93
2022-09-16T11:22:40.574Z,6.53
2022-09-16T11:25:26.957Z,31.63
2022-09-16T11:28:02.533Z,10.73
2022-09-16T11:30:35.631Z,7.85
2022-09-16T11:33:16.490Z,13.55
2022-09-16T11:36:08.161Z,7.10
2022-09-16T11:38:46.043Z,5.55
2022-09-16T11:41:20.897Z,5.95
2022-09-16T11:44:16.784Z,11.27
2022-09-16T11:46:53.683Z,12.98
2022-09-16T11:49:34.770Z,42.25
2022-09-16T11:52:12.659Z,7.68
2022-09-16T11:54:58.005Z,21.77
2022-09-16T11:57:30.510Z,35.30
2022-09-16T12:00:03.781Z,27.45
2022-09-16T12:02:38.181Z,33.58
2022-09-16T12:05:14.098Z,30.08
2022-09-16T12:07:47.013Z,6.95
2022-09-16T12:10:20.800Z,31.65
2022-09-16T12:12:54.877Z,32.05
2022-09-16T12:15:27.126Z,10.90
2022-09-16T12:17:59.153Z,13.10
2022-09-16T12:20:30.853Z,7.35
2022-09-16T12:23:15.590Z,32.38
2022-09-16T12:25:47.845Z,31.65
2022-09-16T12:28:24.465Z,9.20
2022-09-16T12:31:01.634Z,6.05
2022-09-16T12:33:36.771Z,26.63
2022-09-16T12:36:08.068Z,6.88
2022-09-16T12:38:36.341Z,38.92
2022-09-16T12:41:21.625Z,7.95
2022-09-16T12:44:23.668Z,8.70
2022-09-16T12:47:22.913Z,15.70
2022-09-16T12:50:17.775Z,10.65
2022-09-16T12:53:07.008Z,5.38
2022-09-16T12:55:56.976Z,6.05
2022-09-16T12:58:49.359Z,5.22
2022-09-16T13:01:23.564Z,10.25
2022-09-16T13:03:56.365Z,7.50
2022-09-16T13:06:27.999Z,10.23
2022-09-16T13:08:56.898Z,21.70
2022-09-16T13:14:25.343Z,8.70
2022-09-16T13:16:56.642Z,41.53
2022-09-16T13:19:44.404Z,19.40
2022-09-16T13:22:23.196Z,19.27
2022-09-16T13:24:55.481Z,10.15
2022-09-16T13:27:27.364Z,10.57
2022-09-16T13:30:13.432Z,5.40
2022-09-16T13:32:45.112Z,10.00
2022-09-16T13:35:24.736Z,6.07
2022-09-16T13:37:55.389Z,9.50
2022-09-16T13:40:25.509Z,11.18
2022-09-16T13:43:04.847Z,10.82
2022-09-16T13:45:34.410Z,5.80
2022-09-16T13:48:12.780Z,6.97
2022-09-16T13:50:43.748Z,5.15
2022-09-16T13:53:12.121Z,14.15
2022-09-16T13:55:42.087Z,26.73
2022-09-16T13:58:21.043Z,7.38
2022-09-16T14:01:01.603Z,9.15
2022-09-16T14:03:45.919Z,19.13
2022-09-16T14:06:36.739Z,40.03
2022-09-16T14:09:25.736Z,15.45
2022-09-16T14:12:03.846Z,20.02
2022-09-16T14:14:49.834Z,21.20
2022-09-16T14:17:21.980Z,5.90
2022-09-16T14:19:54.532Z,14.07
2022-09-16T14:22:25.603Z,9.55
2022-09-16T14:25:05.659Z,8.88
2022-09-16T14:27:39.118Z,7.05
2022-09-16T14:30:14.709Z,12.70
2022-09-16T14:32:42.382Z,30.85
2022-09-16T14:35:16.721Z,6.70
2022-09-16T14:37:47.132Z,8.55
2022-09-16T14:40:17.486Z,8.32
2022-09-16T14:42:49.815Z,11.18
2022-09-16T14:45:18.509Z,11.88
2022-09-16T14:47:51.513Z,17.92
2022-09-16T14:50:24.598Z,7.38
2022-09-16T14:52:56.570Z,9.77
2022-09-16T14:55:25.917Z,11.10
2022-09-16T14:57:53.682Z,10.43
2022-09-16T15:00:21.427Z,20.40
2022-09-16T15:02:53.334Z,15.38
2022-09-16T15:05:27.303Z,16.17
2022-09-16T15:08:14.648Z,29.17
2022-09-16T15:10:52.399Z,8.20
2022-09-16T15:13:22.317Z,5.75
2022-09-16T15:15:52.939Z,10.40
2022-09-16T15:18:25.257Z,8.40
2022-09-16T15:21:02.792Z,36.42
2022-09-16T15:23:31.438Z,17.77
2022-09-16T15:26:04.625Z,28.20
2022-09-16T15:28:32.105Z,16.95
2022-09-16T15:30:59.731Z,44.65
2022-09-16T15:33:35.299Z,40.70
2022-09-16T15:36:07.489Z,35.72
2022-09-16T15:38:35.052Z,8.00
2022-09-16T15:41:04.223Z,32.28
2022-09-16T15:43:36.481Z,8.88
2022-09-16T15:46:09.036Z,24.67
2022-09-16T15:48:43.589Z,32.97
2022-09-16T15:51:29.087Z,48.17
2022-09-16T15:54:01.220Z,46.42
2022-09-16T15:56:33.724Z,13.70
2022-09-16T15:59:04.351Z,35.22
2022-09-16T16:01:41.143Z,18.13
2022-09-16T16:04:11.817Z,45.22
2022-09-16T16:06:50.420Z,21.52
2022-09-16T16:09:42.021Z,6.05
2022-09-16T16:12:12.441Z,32.60
2022-09-16T16:14:41.349Z,5.78
2022-09-16T16:17:13.633Z,25.25
2022-09-16T16:19:42.789Z,6.25
2022-09-16T16:22:12.339Z,3.65
2022-09-16T16:24:40.351Z,5.53
2022-09-16T16:27:08.448Z,5.65
2022-09-16T16:29:36.081Z,4.85
2022-09-16T16:32:07.267Z,6.10
2022-09-16T16:34:36.168Z,6.35
2022-09-16T16:37:04.327Z,10.63
2022-09-16T16:39:33.166Z,11.38
2022-09-16T16:42:00.784Z,5.70
2022-09-16T16:44:28.537Z,44.28
2022-09-16T16:46:56.624Z,21.80
2022-09-16T16:49:24.931Z,40.78
2022-09-16T16:51:54.848Z,9.57
2022-09-16T16:54:22.996Z,29.40
2022-09-16T16:56:52.205Z,42.05
2022-09-16T16:59:20.235Z,32.92
2022-09-16T17:01:49.380Z,37.70
2022-09-16T17:04:17.006Z,32.33
2022-09-16T17:06:44.835Z,59.15
2022-09-16T17:09:15.892Z,37.88
2022-09-16T17:11:53.643Z,15.00
2022-09-16T17:14:23.003Z,54.45
2022-09-16T17:16:52.457Z,6.28
2022-09-16T17:19:20.367Z,5.68
2022-09-16T17:21:49.758Z,4.07
2022-09-16T17:24:18.012Z,5.00
2022-09-16T17:26:46.341Z,6.72
2022-09-16T17:29:16.294Z,8.55
2022-09-16T17:31:44.537Z,11.40
2022-09-16T17:34:13.924Z,13.40
2022-09-16T17:36:43.774Z,7.10
2022-09-16T17:39:14.889Z,6.13
2022-09-16T17:41:43.910Z,11.55
2022-09-16T17:44:12.739Z,26.15
2022-09-16T17:46:43.229Z,20.75
2022-09-16T17:49:15.722Z,5.10
2022-09-16T17:51:43.221Z,4.75
2022-09-16T17:54:10.924Z,5.35
2022-09-16T17:56:38.901Z,3.47
2022-09-16T17:59:06.403Z,12.43
2022-09-16T18:01:34.437Z,3.58
2022-09-16T18:04:03.749Z,3.67
2022-09-16T18:06:35.578Z,3.40
2022-09-16T18:09:04.565Z,15.55
2022-09-16T18:11:32.265Z,6.03
2022-09-16T18:14:02.047Z,4.55
2022-09-16T18:16:31.156Z,3.35
2022-09-16T18:19:00.718Z,4.25
2022-09-16T18:21:29.943Z,12.10
2022-09-16T18:23:59.055Z,4.00
2022-09-16T18:26:27.498Z,10.88
2022-09-16T18:29:12.391Z,5.78
2022-09-16T18:31:41.269Z,3.50
2022-09-16T18:34:08.889Z,7.28
2022-09-16T18:36:39.068Z,7.55
2022-09-16T18:39:08.047Z,30.33
2022-09-16T18:41:37.600Z,35.75
2022-09-16T18:44:07.583Z,62.40
2022-09-16T18:46:36.671Z,50.25
2022-09-16T18:49:05.875Z,39.58
2022-09-16T18:51:35.060Z,6.35
2022-09-16T18:54:06.260Z,3.15
2022-09-16T18:56:35.399Z,5.50
2022-09-16T18:59:22.683Z,4.43
2022-09-16T19:01:52.349Z,7.65
2022-09-16T19:04:21.698Z,21.63
2022-09-16T19:06:51.162Z,5.90
2022-09-16T19:09:22.164Z,3.97
2022-09-16T19:11:52.239Z,5.40
2022-09-16T19:14:22.282Z,13.57
2022-09-16T19:16:49.785Z,9.80
2022-09-16T19:19:17.439Z,8.77
2022-09-16T19:21:45.189Z,10.95
2022-09-16T19:24:15.047Z,5.30
2022-09-16T19:26:45.431Z,5.95
2022-09-16T19:29:15.054Z,6.53
2022-09-16T19:31:44.692Z,4.90
2022-09-16T19:34:13.008Z,6.45
2022-09-16T19:36:41.356Z,9.43
2022-09-16T19:39:10.139Z,7.35
2022-09-16T19:41:40.011Z,12.13
2022-09-16T19:44:11.947Z,18.02
2022-09-16T19:46:42.491Z,24.23
2022-09-16T19:49:14.502Z,25.77
2022-09-16T19:51:42.100Z,28.48
2022-09-16T19:54:09.597Z,59.03
2022-09-16T19:56:37.072Z,51.65
2022-09-16T19:59:04.724Z,69.28
2022-09-16T20:01:35.021Z,40.93
2022-09-16T20:04:04.491Z,38.83
2022-09-16T20:06:36.017Z,50.00
2022-09-16T20:09:05.916Z,94.28
2022-09-16T20:11:38.554Z,75.10
2022-09-16T20:14:08.534Z,26.63
2022-09-16T20:16:39.695Z,22.03
2022-09-16T20:19:10.074Z,24.50
2022-09-16T20:21:37.852Z,23.38
2022-09-16T20:24:07.745Z,23.17
2022-09-16T20:26:36.496Z,23.07
2022-09-16T20:29:04.652Z,67.10
2022-09-16T20:31:35.739Z,61.00
2022-09-16T20:34:05.709Z,28.40
2022-09-16T20:36:38.011Z,37.33
2022-09-16T20:39:06.758Z,23.20
2022-09-16T20:41:35.978Z,24.17
2022-09-16T20:44:04.952Z,23.27
2022-09-16T20:46:34.256Z,22.20
2022-09-16T20:49:06.378Z,16.53
2022-09-16T20:51:35.322Z,16.23
2022-09-16T20:54:07.794Z,13.30
2022-09-16T20:56:38.314Z,12.93
2022-09-16T20:59:08.084Z,13.03
2022-09-16T21:01:37.027Z,11.93
2022-09-16T21:04:07.531Z,15.17
2022-09-16T21:06:36.576Z,17.50
2022-09-16T21:09:06.975Z,27.30
2022-09-16T21:11:35.334Z,19.03
2022-09-16T21:14:06.304Z,27.67
2022-09-16T21:16:35.943Z,35.07
2022-09-16T21:19:09.092Z,40.97
2022-09-16T21:21:37.573Z,33.83
2022-09-16T21:24:07.003Z,35.00
2022-09-16T21:26:36.418Z,24.55
2022-09-16T21:29:05.972Z,23.57
2022-09-16T21:31:34.641Z,22.35
2022-09-16T21:34:03.353Z,24.63
2022-09-16T21:36:32.222Z,20.80
2022-09-16T21:38:59.753Z,26.43
2022-09-16T21:41:27.458Z,27.00
2022-09-16T21:43:56.480Z,28.93
2022-09-16T21:46:26.733Z,22.30
2022-09-16T21:48:57.313Z,26.80
2022-09-16T21:51:25.056Z,19.43
2022-09-16T21:53:54.079Z,38.00
2022-09-16T21:56:24.077Z,33.77
2022-09-16T21:58:55.279Z,35.00
2022-09-16T22:01:25.980Z,35.87
2022-09-16T22:03:56.575Z,50.23
2022-09-16T22:06:25.497Z,42.27
2022-09-16T22:08:54.975Z,38.00
2022-09-16T22:11:25.968Z,42.87
2022-09-16T22:13:55.776Z,47.97
2022-09-16T22:16:27.902Z,48.67
2022-09-16T22:18:56.761Z,48.63
2022-09-16T22:21:25.757Z,58.63
2022-09-16T22:23:54.851Z,49.03
2022-09-16T22:26:24.064Z,44.10
2022-09-16T22:28:52.384Z,43.60
2022-09-16T22:31:21.845Z,51.33
2022-09-16T22:33:51.051Z,52.30
2022-09-16T22:36:20.463Z,47.30
2022-09-16T22:38:48.155Z,39.07
2022-09-16T22:41:18.309Z,41.67
2022-09-16T22:43:48.254Z,51.77
2022-09-16T22:46:17.611Z,51.20
2022-09-16T22:48:45.743Z,47.43
2022-09-16T22:51:15.086Z,47.37
2022-09-16T22:53:44.034Z,47.70
2022-09-16T22:56:13.034Z,44.27
2022-09-16T22:58:44.020Z,45.30
2022-09-16T23:01:15.121Z,39.30
2022-09-16T23:03:43.501Z,43.00
2022-09-16T23:06:12.891Z,48.77
2022-09-16T23:08:42.762Z,46.73
2022-09-16T23:11:15.456Z,41.90
2022-09-16T23:13:45.228Z,42.10
2022-09-16T23:16:17.247Z,36.60
2022-09-16T23:18:45.680Z,36.90
2022-09-16T23:21:15.123Z,37.57
2022-09-16T23:23:44.196Z,36.90
2022-09-16T23:26:14.126Z,53.67
2022-09-16T23:28:42.055Z,51.90
2022-09-16T23:31:13.136Z,52.80
2022-09-16T23:33:41.388Z,59.60
2022-09-16T23:36:10.975Z,50.97
2022-09-16T23:38:39.854Z,39.43
2022-09-16T23:41:10.708Z,27.17
2022-09-16T23:43:38.981Z,43.40
2022-09-16T23:46:07.363Z,35.00
2022-09-16T23:48:37.374Z,50.07
2022-09-16T23:51:05.956Z,41.57
2022-09-16T23:53:33.849Z,64.20
2022-09-16T23:56:05.760Z,68.93
2022-09-16T23:58:33.373Z,61.43
